Togiak

About
Name: Togiak
Identifier:  TOG/PATG
Serves:  Togiak Village, Alaska
Owner:  State of Alaska DOT&PF - Central Region
Public/Private:  Public
Local Time:  25. Aug 01:53 AKDT
Description: Togiak Airport is a state-owned, public-use airport located in Togiak Village, in the Bethel Census Area of the U.S. state of Alaska.
Source: Wikipedia
Location
Togiak Village
  United States

Runways
Identifier Length (m/ft) Surface
3/21 4,400/4,400 Gravel
10/28 981/981 Gravel
Flights per Day
1 flights
Distance: 154km (95mi)
Punctuality
66% (0 flights per day delayed)
Delay Average: 328 minutes
Current Weather
 10 C (Humidity: 81%)
  7kt (12km/h / 8mph) from 10°
  16km (10 mi.)
 
 METAR PATG 250856Z AUTO 01007KT 10SM CLR 10/07 A2988 RMK AO2 SLP212 T01000072 401830072 51015

Current Flights

Departures
Number Departure To Airline
Arrivals
Number Arrival From Airline
 GV443 16:30 +71  Dillingham Grant Aviation
 GV4422 14:45 +180  Dillingham Grant Aviation

Current Delays

Departures
N/A
Arrivals
N/A

Destinations

Top Destinations
Airport Flights
per week
Seats
per week
  Anchorage (ANC) 0 - 0 0

Airlines & Planes

Top Airlines
Airline Flights
per Day
Seats
per Day
Alaska Central Express 0 -
Top Plane Types
Model Flights Seats
Beech 1900D 0.1/day - 0